sensor_id;sensor_type;location;lat;lon;timestamp;pressure;altitude;pressure_sealevel;temperature;humidity
18795;BME280;29610;49.022;12.114;2023-06-10T00:01:42;97386.06;;;18.60;100.00
18795;BME280;29610;49.022;12.114;2023-06-10T00:04:15;97382.06;;;18.54;100.00
18795;BME280;29610;49.022;12.114;2023-06-10T00:06:44;97388.16;;;18.37;100.00
18795;BME280;29610;49.022;12.114;2023-06-10T00:09:16;97393.50;;;18.19;100.00
18795;BME280;29610;49.022;12.114;2023-06-10T00:11:45;97392.91;;;18.03;100.00
18795;BME280;29610;49.022;12.114;2023-06-10T00:14:15;97393.28;;;17.98;100.00
18795;BME280;29610;49.022;12.114;2023-06-10T00:16:44;97388.88;;;17.94;100.00
18795;BME280;29610;49.022;12.114;2023-06-10T00:19:13;97393.16;;;17.88;100.00
18795;BME280;29610;49.022;12.114;2023-06-10T00:21:42;97388.16;;;17.64;100.00
18795;BME280;29610;49.022;12.114;2023-06-10T00:24:12;97389.38;;;17.70;100.00
18795;BME280;29610;49.022;12.114;2023-06-10T00:26:41;97393.00;;;17.74;100.00
18795;BME280;29610;49.022;12.114;2023-06-10T00:29:10;97388.91;;;17.61;100.00
18795;BME280;29610;49.022;12.114;2023-06-10T00:31:40;97388.06;;;17.57;100.00
18795;BME280;29610;49.022;12.114;2023-06-10T00:34:09;97383.34;;;17.57;100.00
18795;BME280;29610;49.022;12.114;2023-06-10T00:36:38;97384.06;;;17.50;100.00
18795;BME280;29610;49.022;12.114;2023-06-10T00:39:06;97380.97;;;17.56;100.00
18795;BME280;29610;49.022;12.114;2023-06-10T00:41:36;97382.97;;;17.55;100.00
18795;BME280;29610;49.022;12.114;2023-06-10T00:44:05;97377.78;;;17.50;100.00
18795;BME280;29610;49.022;12.114;2023-06-10T00:46:34;97382.91;;;17.52;100.00
18795;BME280;29610;49.022;12.114;2023-06-10T00:49:06;97387.16;;;17.45;100.00
18795;BME280;29610;49.022;12.114;2023-06-10T00:51:37;97384.81;;;17.47;100.00
18795;BME280;29610;49.022;12.114;2023-06-10T00:54:07;97377.41;;;17.52;100.00
18795;BME280;29610;49.022;12.114;2023-06-10T00:56:36;97376.59;;;17.51;100.00
18795;BME280;29610;49.022;12.114;2023-06-10T00:59:05;97378.03;;;17.41;100.00
18795;BME280;29610;49.022;12.114;2023-06-10T01:01:34;97373.19;;;17.31;100.00
18795;BME280;29610;49.022;12.114;2023-06-10T01:04:06;97375.31;;;17.15;100.00
18795;BME280;29610;49.022;12.114;2023-06-10T01:06:48;97368.41;;;16.99;100.00
18795;BME280;29610;49.022;12.114;2023-06-10T01:09:32;97370.78;;;17.00;100.00
18795;BME280;29610;49.022;12.114;2023-06-10T01:12:10;97365.25;;;16.97;100.00
18795;BME280;29610;49.022;12.114;2023-06-10T01:14:40;97373.13;;;16.98;100.00
18795;BME280;29610;49.022;12.114;2023-06-10T01:17:13;97375.50;;;17.00;100.00
18795;BME280;29610;49.022;12.114;2023-06-10T01:19:54;97383.63;;;16.93;100.00
18795;BME280;29610;49.022;12.114;2023-06-10T01:22:26;97382.47;;;16.94;100.00
18795;BME280;29610;49.022;12.114;2023-06-10T01:24:56;97388.34;;;16.70;100.00
18795;BME280;29610;49.022;12.114;2023-06-10T01:27:33;97383.50;;;16.86;100.00
18795;BME280;29610;49.022;12.114;2023-06-10T01:30:14;97376.53;;;16.92;100.00
18795;BME280;29610;49.022;12.114;2023-06-10T01:32:48;97378.72;;;17.05;100.00
18795;BME280;29610;49.022;12.114;2023-06-10T01:35:21;97383.03;;;17.06;100.00
18795;BME280;29610;49.022;12.114;2023-06-10T01:37:57;97385.94;;;16.91;100.00
18795;BME280;29610;49.022;12.114;2023-06-10T01:40:28;97390.00;;;17.00;100.00
18795;BME280;29610;49.022;12.114;2023-06-10T01:42:57;97391.16;;;16.99;100.00
18795;BME280;29610;49.022;12.114;2023-06-10T01:45:26;97392.00;;;17.03;100.00
18795;BME280;29610;49.022;12.114;2023-06-10T01:47:55;97386.53;;;17.03;100.00
18795;BME280;29610;49.022;12.114;2023-06-10T01:50:24;97377.91;;;17.05;100.00
18795;BME280;29610;49.022;12.114;2023-06-10T01:52:59;97384.94;;;17.02;100.00
18795;BME280;29610;49.022;12.114;2023-06-10T01:55:28;97386.69;;;16.88;100.00
18795;BME280;29610;49.022;12.114;2023-06-10T01:57:57;97389.69;;;16.79;100.00
18795;BME280;29610;49.022;12.114;2023-06-10T02:00:26;97390.06;;;16.78;100.00
18795;BME280;29610;49.022;12.114;2023-06-10T02:02:55;97396.59;;;16.70;100.00
18795;BME280;29610;49.022;12.114;2023-06-10T02:05:24;97392.06;;;16.81;100.00
18795;BME280;29610;49.022;12.114;2023-06-10T02:07:53;97400.22;;;16.77;100.00
18795;BME280;29610;49.022;12.114;2023-06-10T02:10:23;97398.06;;;16.64;100.00
18795;BME280;29610;49.022;12.114;2023-06-10T02:12:52;97396.47;;;16.40;100.00
18795;BME280;29610;49.022;12.114;2023-06-10T02:15:21;97394.13;;;16.20;100.00
18795;BME280;29610;49.022;12.114;2023-06-10T02:17:50;97397.03;;;16.07;100.00
18795;BME280;29610;49.022;12.114;2023-06-10T02:20:19;97391.66;;;15.92;100.00
18795;BME280;29610;49.022;12.114;2023-06-10T02:22:48;97390.66;;;16.00;100.00
18795;BME280;29610;49.022;12.114;2023-06-10T02:25:16;97399.28;;;16.02;100.00
18795;BME280;29610;49.022;12.114;2023-06-10T02:27:46;97394.81;;;16.13;100.00
18795;BME280;29610;49.022;12.114;2023-06-10T02:30:15;97400.88;;;16.03;100.00
18795;BME280;29610;49.022;12.114;2023-06-10T02:32:44;97405.78;;;15.94;100.00
18795;BME280;29610;49.022;12.114;2023-06-10T02:35:17;97405.03;;;15.74;100.00
18795;BME280;29610;49.022;12.114;2023-06-10T02:37:47;97413.25;;;15.55;100.00
18795;BME280;29610;49.022;12.114;2023-06-10T02:40:16;97411.59;;;15.51;100.00
18795;BME280;29610;49.022;12.114;2023-06-10T02:42:46;97407.25;;;15.50;100.00
18795;BME280;29610;49.022;12.114;2023-06-10T02:45:15;97409.69;;;15.74;100.00
18795;BME280;29610;49.022;12.114;2023-06-10T02:47:44;97406.31;;;15.80;100.00
18795;BME280;29610;49.022;12.114;2023-06-10T02:50:13;97397.66;;;15.78;100.00
18795;BME280;29610;49.022;12.114;2023-06-10T02:52:56;97393.78;;;16.02;100.00
18795;BME280;29610;49.022;12.114;2023-06-10T02:55:25;97403.03;;;16.13;100.00
18795;BME280;29610;49.022;12.114;2023-06-10T02:58:01;97393.81;;;16.25;100.00
18795;BME280;29610;49.022;12.114;2023-06-10T03:00:31;97402.31;;;16.16;100.00
18795;BME280;29610;49.022;12.114;2023-06-10T03:03:00;97400.63;;;16.11;100.00
18795;BME280;29610;49.022;12.114;2023-06-10T03:05:34;97401.25;;;16.01;100.00
18795;BME280;29610;49.022;12.114;2023-06-10T03:08:05;97407.53;;;15.83;100.00
18795;BME280;29610;49.022;12.114;2023-06-10T03:10:37;97408.91;;;15.73;100.00
18795;BME280;29610;49.022;12.114;2023-06-10T03:13:08;97405.59;;;15.64;100.00
18795;BME280;29610;49.022;12.114;2023-06-10T03:15:37;97409.22;;;15.68;100.00
18795;BME280;29610;49.022;12.114;2023-06-10T03:18:12;97410.44;;;15.71;100.00
18795;BME280;29610;49.022;12.114;2023-06-10T03:20:41;97402.69;;;15.76;100.00
18795;BME280;29610;49.022;12.114;2023-06-10T03:23:12;97401.28;;;15.82;100.00
18795;BME280;29610;49.022;12.114;2023-06-10T03:25:41;97399.44;;;15.90;100.00
18795;BME280;29610;49.022;12.114;2023-06-10T03:28:15;97399.88;;;15.92;100.00
18795;BME280;29610;49.022;12.114;2023-06-10T03:30:44;97400.81;;;15.99;100.00
18795;BME280;29610;49.022;12.114;2023-06-10T03:33:13;97412.28;;;16.05;100.00
18795;BME280;29610;49.022;12.114;2023-06-10T03:35:43;97405.34;;;16.11;100.00
18795;BME280;29610;49.022;12.114;2023-06-10T03:38:13;97402.59;;;16.11;100.00
18795;BME280;29610;49.022;12.114;2023-06-10T03:40:43;97399.50;;;16.13;100.00
18795;BME280;29610;49.022;12.114;2023-06-10T03:43:11;97403.50;;;16.19;100.00
18795;BME280;29610;49.022;12.114;2023-06-10T03:45:42;97408.50;;;16.13;100.00
18795;BME280;29610;49.022;12.114;2023-06-10T03:48:11;97407.19;;;16.07;100.00
18795;BME280;29610;49.022;12.114;2023-06-10T03:50:47;97408.81;;;16.08;100.00
18795;BME280;29610;49.022;12.114;2023-06-10T03:53:18;97411.59;;;16.11;100.00
18795;BME280;29610;49.022;12.114;2023-06-10T03:55:47;97417.28;;;16.22;100.00
18795;BME280;29610;49.022;12.114;2023-06-10T03:58:19;97426.50;;;15.91;100.00
18795;BME280;29610;49.022;12.114;2023-06-10T04:00:49;97423.75;;;15.91;100.00
18795;BME280;29610;49.022;12.114;2023-06-10T04:03:17;97427.38;;;15.95;100.00
18795;BME280;29610;49.022;12.114;2023-06-10T04:05:51;97424.00;;;16.05;100.00
18795;BME280;29610;49.022;12.114;2023-06-10T04:08:20;97421.69;;;16.27;100.00
18795;BME280;29610;49.022;12.114;2023-06-10T04:10:49;97427.41;;;16.41;100.00
18795;BME280;29610;49.022;12.114;2023-06-10T04:13:18;97426.84;;;16.51;100.00
18795;BME280;29610;49.022;12.114;2023-06-10T04:15:57;97423.94;;;16.44;100.00
18795;BME280;29610;49.022;12.114;2023-06-10T04:18:26;97428.84;;;16.76;100.00
18795;BME280;29610;49.022;12.114;2023-06-10T04:20:59;97424.44;;;16.94;100.00
18795;BME280;29610;49.022;12.114;2023-06-10T04:23:27;97424.94;;;16.77;100.00
18795;BME280;29610;49.022;12.114;2023-06-10T04:25:56;97419.38;;;16.74;100.00
18795;BME280;29610;49.022;12.114;2023-06-10T04:28:26;97424.53;;;16.75;100.00
18795;BME280;29610;49.022;12.114;2023-06-10T04:30:57;97433.16;;;16.77;100.00
18795;BME280;29610;49.022;12.114;2023-06-10T04:33:27;97429.81;;;16.65;100.00
18795;BME280;29610;49.022;12.114;2023-06-10T04:35:55;97430.16;;;16.86;100.00
18795;BME280;29610;49.022;12.114;2023-06-10T04:38:28;97426.06;;;16.99;100.00
18795;BME280;29610;49.022;12.114;2023-06-10T04:40:59;97425.31;;;17.02;100.00
18795;BME280;29610;49.022;12.114;2023-06-10T04:43:31;97431.34;;;17.11;100.00
18795;BME280;29610;49.022;12.114;2023-06-10T04:46:02;97431.66;;;17.06;100.00
18795;BME280;29610;49.022;12.114;2023-06-10T04:48:35;97427.69;;;17.03;100.00
18795;BME280;29610;49.022;12.114;2023-06-10T04:51:04;97433.09;;;17.22;100.00
18795;BME280;29610;49.022;12.114;2023-06-10T04:53:33;97426.47;;;17.27;100.00
18795;BME280;29610;49.022;12.114;2023-06-10T04:56:02;97432.53;;;17.39;100.00
18795;BME280;29610;49.022;12.114;2023-06-10T04:58:31;97435.56;;;17.31;100.00
18795;BME280;29610;49.022;12.114;2023-06-10T05:01:01;97436.53;;;17.72;100.00
18795;BME280;29610;49.022;12.114;2023-06-10T05:03:30;97433.50;;;17.80;100.00
18795;BME280;29610;49.022;12.114;2023-06-10T05:05:59;97427.75;;;17.92;100.00
18795;BME280;29610;49.022;12.114;2023-06-10T05:08:27;97434.38;;;17.88;100.00
18795;BME280;29610;49.022;12.114;2023-06-10T05:10:56;97441.09;;;18.23;100.00
18795;BME280;29610;49.022;12.114;2023-06-10T05:13:25;97440.97;;;18.49;100.00
18795;BME280;29610;49.022;12.114;2023-06-10T05:15:54;97437.06;;;18.50;100.00
18795;BME280;29610;49.022;12.114;2023-06-10T05:18:24;97431.00;;;18.74;100.00
18795;BME280;29610;49.022;12.114;2023-06-10T05:20:53;97440.78;;;18.72;100.00
18795;BME280;29610;49.022;12.114;2023-06-10T05:23:22;97433.34;;;18.72;100.00
18795;BME280;29610;49.022;12.114;2023-06-10T05:25:51;97434.91;;;18.73;100.00
18795;BME280;29610;49.022;12.114;2023-06-10T05:28:20;97432.19;;;18.77;100.00
18795;BME280;29610;49.022;12.114;2023-06-10T05:30:48;97435.13;;;18.98;100.00
18795;BME280;29610;49.022;12.114;2023-06-10T05:33:17;97434.53;;;18.71;100.00
18795;BME280;29610;49.022;12.114;2023-06-10T05:35:47;97434.41;;;19.08;100.00
18795;BME280;29610;49.022;12.114;2023-06-10T05:38:16;97437.06;;;19.45;100.00
18795;BME280;29610;49.022;12.114;2023-06-10T05:40:45;97437.34;;;19.29;100.00
18795;BME280;29610;49.022;12.114;2023-06-10T05:43:14;97435.88;;;19.46;100.00
18795;BME280;29610;49.022;12.114;2023-06-10T05:45:44;97443.00;;;19.54;100.00
18795;BME280;29610;49.022;12.114;2023-06-10T05:48:13;97441.97;;;19.79;100.00
18795;BME280;29610;49.022;12.114;2023-06-10T05:50:42;97441.13;;;19.68;100.00
18795;BME280;29610;49.022;12.114;2023-06-10T05:53:16;97443.97;;;19.86;100.00
18795;BME280;29610;49.022;12.114;2023-06-10T05:55:46;97434.47;;;19.83;100.00
18795;BME280;29610;49.022;12.114;2023-06-10T05:58:15;97449.09;;;19.87;100.00
18795;BME280;29610;49.022;12.114;2023-06-10T06:00:44;97442.75;;;19.83;100.00
18795;BME280;29610;49.022;12.114;2023-06-10T06:03:13;97434.88;;;19.85;100.00
18795;BME280;29610;49.022;12.114;2023-06-10T06:05:42;97438.16;;;20.12;100.00
18795;BME280;29610;49.022;12.114;2023-06-10T06:08:11;97431.09;;;20.25;100.00
18795;BME280;29610;49.022;12.114;2023-06-10T06:10:42;97431.50;;;20.27;100.00
18795;BME280;29610;49.022;12.114;2023-06-10T06:13:11;97421.28;;;20.31;100.00
18795;BME280;29610;49.022;12.114;2023-06-10T06:15:40;97427.56;;;20.28;100.00
18795;BME280;29610;49.022;12.114;2023-06-10T06:18:08;97420.91;;;20.43;100.00
18795;BME280;29610;49.022;12.114;2023-06-10T06:20:37;97420.16;;;20.64;100.00
18795;BME280;29610;49.022;12.114;2023-06-10T06:23:06;97415.41;;;20.75;100.00
18795;BME280;29610;49.022;12.114;2023-06-10T06:25:37;97411.09;;;21.02;100.00
18795;BME280;29610;49.022;12.114;2023-06-10T06:28:10;97418.22;;;21.17;100.00
18795;BME280;29610;49.022;12.114;2023-06-10T06:30:38;97419.38;;;21.02;100.00
18795;BME280;29610;49.022;12.114;2023-06-10T06:33:07;97413.47;;;21.17;100.00
18795;BME280;29610;49.022;12.114;2023-06-10T06:35:36;97419.75;;;21.46;100.00
18795;BME280;29610;49.022;12.114;2023-06-10T06:38:06;97406.69;;;21.57;100.00
18795;BME280;29610;49.022;12.114;2023-06-10T06:40:35;97411.34;;;21.70;100.00
18795;BME280;29610;49.022;12.114;2023-06-10T06:43:04;97407.66;;;22.09;100.00
18795;BME280;29610;49.022;12.114;2023-06-10T06:45:58;97407.22;;;22.24;100.00
18795;BME280;29610;49.022;12.114;2023-06-10T06:48:26;97417.00;;;22.36;100.00
18795;BME280;29610;49.022;12.114;2023-06-10T06:50:55;97418.81;;;22.67;100.00
18795;BME280;29610;49.022;12.114;2023-06-10T06:53:25;97423.44;;;22.84;100.00
18795;BME280;29610;49.022;12.114;2023-06-10T06:55:59;97424.22;;;22.84;100.00
18795;BME280;29610;49.022;12.114;2023-06-10T06:58:28;97426.47;;;23.00;100.00
18795;BME280;29610;49.022;12.114;2023-06-10T07:00:58;97430.25;;;22.72;100.00
18795;BME280;29610;49.022;12.114;2023-06-10T07:03:27;97440.03;;;22.87;100.00
18795;BME280;29610;49.022;12.114;2023-06-10T07:05:55;97432.78;;;23.04;100.00
18795;BME280;29610;49.022;12.114;2023-06-10T07:08:24;97437.09;;;23.12;100.00
18795;BME280;29610;49.022;12.114;2023-06-10T07:10:53;97442.47;;;23.30;100.00
18795;BME280;29610;49.022;12.114;2023-06-10T07:13:23;97446.50;;;23.22;100.00
18795;BME280;29610;49.022;12.114;2023-06-10T07:15:52;97453.19;;;23.31;100.00
18795;BME280;29610;49.022;12.114;2023-06-10T07:18:22;97445.91;;;23.44;100.00
18795;BME280;29610;49.022;12.114;2023-06-10T07:20:51;97437.72;;;23.71;100.00
18795;BME280;29610;49.022;12.114;2023-06-10T07:23:20;97440.09;;;23.69;100.00
18795;BME280;29610;49.022;12.114;2023-06-10T07:25:48;97453.94;;;23.72;100.00
18795;BME280;29610;49.022;12.114;2023-06-10T07:28:17;97453.97;;;24.06;100.00
18795;BME280;29610;49.022;12.114;2023-06-10T07:30:46;97451.16;;;23.72;100.00
18795;BME280;29610;49.022;12.114;2023-06-10T07:33:14;97445.13;;;23.44;100.00
18795;BME280;29610;49.022;12.114;2023-06-10T07:35:45;97454.75;;;23.32;100.00
18795;BME280;29610;49.022;12.114;2023-06-10T07:38:13;97456.91;;;23.55;100.00
18795;BME280;29610;49.022;12.114;2023-06-10T07:40:42;97458.38;;;23.66;100.00
18795;BME280;29610;49.022;12.114;2023-06-10T07:43:11;97455.91;;;23.72;100.00
18795;BME280;29610;49.022;12.114;2023-06-10T07:45:40;97454.97;;;23.52;100.00
18795;BME280;29610;49.022;12.114;2023-06-10T07:48:09;97456.38;;;23.67;100.00
18795;BME280;29610;49.022;12.114;2023-06-10T07:50:38;97449.63;;;23.68;100.00
18795;BME280;29610;49.022;12.114;2023-06-10T07:53:09;97448.38;;;23.35;100.00
18795;BME280;29610;49.022;12.114;2023-06-10T07:55:37;97450.25;;;23.45;100.00
18795;BME280;29610;49.022;12.114;2023-06-10T07:58:06;97450.00;;;23.33;100.00
18795;BME280;29610;49.022;12.114;2023-06-10T08:00:35;97454.50;;;23.57;100.00
18795;BME280;29610;49.022;12.114;2023-06-10T08:03:04;97450.19;;;23.89;100.00
18795;BME280;29610;49.022;12.114;2023-06-10T08:05:33;97445.72;;;23.95;100.00
18795;BME280;29610;49.022;12.114;2023-06-10T08:08:02;97457.47;;;23.73;100.00
18795;BME280;29610;49.022;12.114;2023-06-10T08:10:32;97451.22;;;23.65;100.00
18795;BME280;29610;49.022;12.114;2023-06-10T08:13:01;97450.16;;;24.26;100.00
18795;BME280;29610;49.022;12.114;2023-06-10T08:15:29;97450.38;;;24.09;100.00
18795;BME280;29610;49.022;12.114;2023-06-10T08:17:58;97444.97;;;24.28;100.00
18795;BME280;29610;49.022;12.114;2023-06-10T08:20:27;97443.66;;;24.93;100.00
18795;BME280;29610;49.022;12.114;2023-06-10T08:22:56;97446.31;;;25.23;100.00
18795;BME280;29610;49.022;12.114;2023-06-10T08:25:24;97454.81;;;25.39;100.00
18795;BME280;29610;49.022;12.114;2023-06-10T08:27:55;97452.13;;;25.09;100.00
18795;BME280;29610;49.022;12.114;2023-06-10T08:30:24;97450.16;;;25.10;100.00
18795;BME280;29610;49.022;12.114;2023-06-10T08:32:52;97466.53;;;24.47;100.00
18795;BME280;29610;49.022;12.114;2023-06-10T08:35:21;97467.84;;;24.39;100.00
18795;BME280;29610;49.022;12.114;2023-06-10T08:37:51;97465.16;;;23.95;100.00
18795;BME280;29610;49.022;12.114;2023-06-10T08:40:20;97470.72;;;24.29;100.00
18795;BME280;29610;49.022;12.114;2023-06-10T08:43:02;97459.38;;;24.46;100.00
18795;BME280;29610;49.022;12.114;2023-06-10T08:45:36;97455.66;;;24.87;100.00
18795;BME280;29610;49.022;12.114;2023-06-10T08:48:06;97461.53;;;24.92;100.00
18795;BME280;29610;49.022;12.114;2023-06-10T08:50:37;97461.88;;;24.94;100.00
18795;BME280;29610;49.022;12.114;2023-06-10T08:53:07;97462.56;;;24.75;100.00
18795;BME280;29610;49.022;12.114;2023-06-10T08:55:41;97461.69;;;24.82;100.00
18795;BME280;29610;49.022;12.114;2023-06-10T08:58:13;97448.69;;;25.02;100.00
18795;BME280;29610;49.022;12.114;2023-06-10T09:00:42;97454.66;;;25.00;100.00
18795;BME280;29610;49.022;12.114;2023-06-10T09:03:12;97460.19;;;24.77;100.00
18795;BME280;29610;49.022;12.114;2023-06-10T09:05:42;97453.59;;;25.17;100.00
18795;BME280;29610;49.022;12.114;2023-06-10T09:08:12;97456.31;;;25.86;100.00
18795;BME280;29610;49.022;12.114;2023-06-10T09:10:41;97445.59;;;26.08;100.00
18795;BME280;29610;49.022;12.114;2023-06-10T09:13:11;97444.66;;;26.15;100.00
18795;BME280;29610;49.022;12.114;2023-06-10T09:15:43;97451.53;;;26.10;100.00
18795;BME280;29610;49.022;12.114;2023-06-10T09:18:13;97445.22;;;26.45;100.00
18795;BME280;29610;49.022;12.114;2023-06-10T09:20:43;97445.09;;;26.68;100.00
18795;BME280;29610;49.022;12.114;2023-06-10T09:23:13;97446.19;;;27.06;100.00
18795;BME280;29610;49.022;12.114;2023-06-10T09:25:41;97451.69;;;27.58;100.00
18795;BME280;29610;49.022;12.114;2023-06-10T09:28:15;97451.50;;;28.51;100.00
18795;BME280;29610;49.022;12.114;2023-06-10T09:30:43;97454.44;;;28.98;100.00
18795;BME280;29610;49.022;12.114;2023-06-10T09:33:14;97442.06;;;29.58;100.00
18795;BME280;29610;49.022;12.114;2023-06-10T09:35:48;97437.28;;;30.01;100.00
18795;BME280;29610;49.022;12.114;2023-06-10T09:38:21;97434.44;;;30.57;100.00
18795;BME280;29610;49.022;12.114;2023-06-10T09:40:51;97444.97;;;30.44;100.00
18795;BME280;29610;49.022;12.114;2023-06-10T09:43:22;97446.59;;;29.77;100.00
18795;BME280;29610;49.022;12.114;2023-06-10T09:45:51;97444.69;;;29.27;92.15
18795;BME280;29610;49.022;12.114;2023-06-10T09:48:25;97449.06;;;28.78;100.00
18795;BME280;29610;49.022;12.114;2023-06-10T09:50:54;97454.78;;;28.33;100.00
18795;BME280;29610;49.022;12.114;2023-06-10T09:53:23;97455.00;;;28.39;100.00
18795;BME280;29610;49.022;12.114;2023-06-10T09:55:52;97459.97;;;27.62;100.00
18795;BME280;29610;49.022;12.114;2023-06-10T09:58:36;97457.00;;;27.97;100.00
18795;BME280;29610;49.022;12.114;2023-06-10T10:01:06;97460.78;;;28.48;100.00
18795;BME280;29610;49.022;12.114;2023-06-10T10:03:44;97453.66;;;28.85;100.00
18795;BME280;29610;49.022;12.114;2023-06-10T10:06:16;97460.88;;;28.16;100.00
18795;BME280;29610;49.022;12.114;2023-06-10T10:08:47;97458.31;;;28.21;100.00
18795;BME280;29610;49.022;12.114;2023-06-10T10:11:19;97456.84;;;28.17;100.00
18795;BME280;29610;49.022;12.114;2023-06-10T10:13:51;97453.78;;;28.27;100.00
18795;BME280;29610;49.022;12.114;2023-06-10T10:16:22;97462.69;;;28.22;100.00
18795;BME280;29610;49.022;12.114;2023-06-10T10:19:00;97463.03;;;27.96;100.00
18795;BME280;29610;49.022;12.114;2023-06-10T10:21:38;97462.13;;;27.70;100.00
18795;BME280;29610;49.022;12.114;2023-06-10T10:24:16;97457.41;;;27.67;100.00
18795;BME280;29610;49.022;12.114;2023-06-10T10:26:48;97460.47;;;27.89;100.00
18795;BME280;29610;49.022;12.114;2023-06-10T10:29:38;97456.22;;;28.25;100.00
18795;BME280;29610;49.022;12.114;2023-06-10T10:32:08;97454.81;;;28.46;100.00
18795;BME280;29610;49.022;12.114;2023-06-10T10:34:48;97449.88;;;29.75;100.00
18795;BME280;29610;49.022;12.114;2023-06-10T10:37:20;97447.41;;;31.34;100.00
18795;BME280;29610;49.022;12.114;2023-06-10T10:39:50;97441.88;;;32.24;100.00
18795;BME280;29610;49.022;12.114;2023-06-10T10:42:19;97436.59;;;31.90;92.56
18795;BME280;29610;49.022;12.114;2023-06-10T10:44:51;97441.25;;;31.17;94.53
18795;BME280;29610;49.022;12.114;2023-06-10T10:47:22;97443.50;;;30.18;100.00
18795;BME280;29610;49.022;12.114;2023-06-10T10:49:52;97451.97;;;29.37;100.00
18795;BME280;29610;49.022;12.114;2023-06-10T10:52:21;97451.63;;;28.73;100.00
18795;BME280;29610;49.022;12.114;2023-06-10T10:54:53;97462.59;;;28.26;100.00
18795;BME280;29610;49.022;12.114;2023-06-10T10:57:29;97465.13;;;27.47;100.00
18795;BME280;29610;49.022;12.114;2023-06-10T10:59:59;97464.25;;;26.66;100.00
18795;BME280;29610;49.022;12.114;2023-06-10T11:02:37;97463.72;;;26.16;100.00
18795;BME280;29610;49.022;12.114;2023-06-10T11:05:14;97464.47;;;25.77;100.00
18795;BME280;29610;49.022;12.114;2023-06-10T11:07:53;97467.59;;;25.79;100.00
18795;BME280;29610;49.022;12.114;2023-06-10T11:10:30;97463.06;;;26.67;100.00
18795;BME280;29610;49.022;12.114;2023-06-10T11:13:00;97460.78;;;27.30;100.00
18795;BME280;29610;49.022;12.114;2023-06-10T11:15:43;97456.66;;;27.18;100.00
18795;BME280;29610;49.022;12.114;2023-06-10T11:18:20;97454.75;;;27.15;100.00
18795;BME280;29610;49.022;12.114;2023-06-10T11:21:00;97448.38;;;26.99;100.00
18795;BME280;29610;49.022;12.114;2023-06-10T11:23:41;97453.34;;;26.91;100.00
18795;BME280;29610;49.022;12.114;2023-06-10T11:26:29;97446.97;;;27.07;100.00
18795;BME280;29610;49.022;12.114;2023-06-10T11:29:07;97453.78;;;26.35;100.00
18795;BME280;29610;49.022;12.114;2023-06-10T11:31:45;97449.09;;;25.69;100.00
18795;BME280;29610;49.022;12.114;2023-06-10T11:34:21;97444.50;;;25.59;100.00
18795;BME280;29610;49.022;12.114;2023-06-10T11:36:51;97444.69;;;25.91;100.00
18795;BME280;29610;49.022;12.114;2023-06-10T11:39:21;97439.94;;;26.12;100.00
18795;BME280;29610;49.022;12.114;2023-06-10T11:41:54;97438.22;;;26.37;100.00
18795;BME280;29610;49.022;12.114;2023-06-10T11:44:28;97438.25;;;26.53;100.00
18795;BME280;29610;49.022;12.114;2023-06-10T11:47:01;97438.09;;;26.60;100.00
18795;BME280;29610;49.022;12.114;2023-06-10T11:49:29;97435.13;;;27.03;100.00
18795;BME280;29610;49.022;12.114;2023-06-10T11:51:58;97437.59;;;27.94;100.00
18795;BME280;29610;49.022;12.114;2023-06-10T11:54:27;97434.94;;;28.56;100.00
18795;BME280;29610;49.022;12.114;2023-06-10T11:56:58;97436.84;;;28.59;100.00
18795;BME280;29610;49.022;12.114;2023-06-10T11:59:28;97438.41;;;28.48;100.00
18795;BME280;29610;49.022;12.114;2023-06-10T12:01:57;97432.16;;;29.19;100.00
18795;BME280;29610;49.022;12.114;2023-06-10T12:04:28;97417.69;;;30.01;100.00
18795;BME280;29610;49.022;12.114;2023-06-10T12:06:57;97418.28;;;31.50;100.00
18795;BME280;29610;49.022;12.114;2023-06-10T12:09:28;97415.19;;;32.89;100.00
18795;BME280;29610;49.022;12.114;2023-06-10T12:11:58;97400.25;;;34.15;80.33
18795;BME280;29610;49.022;12.114;2023-06-10T12:14:51;97414.13;;;32.68;90.14
18795;BME280;29610;49.022;12.114;2023-06-10T12:17:36;97415.31;;;32.85;100.00
18795;BME280;29610;49.022;12.114;2023-06-10T12:20:26;97419.09;;;31.95;98.44
18795;BME280;29610;49.022;12.114;2023-06-10T12:22:55;97417.34;;;31.62;93.16
18795;BME280;29610;49.022;12.114;2023-06-10T12:25:28;97427.00;;;31.43;100.00
18795;BME280;29610;49.022;12.114;2023-06-10T12:27:58;97425.81;;;31.13;100.00
18795;BME280;29610;49.022;12.114;2023-06-10T12:30:27;97428.19;;;30.53;100.00
18795;BME280;29610;49.022;12.114;2023-06-10T12:32:56;97426.19;;;30.63;100.00
18795;BME280;29610;49.022;12.114;2023-06-10T12:35:28;97425.38;;;30.10;100.00
18795;BME280;29610;49.022;12.114;2023-06-10T12:37:59;97425.25;;;30.35;100.00
18795;BME280;29610;49.022;12.114;2023-06-10T12:40:31;97417.41;;;31.13;100.00
18795;BME280;29610;49.022;12.114;2023-06-10T12:43:00;97412.88;;;31.91;100.00
18795;BME280;29610;49.022;12.114;2023-06-10T12:45:31;97409.38;;;32.41;95.50
18795;BME280;29610;49.022;12.114;2023-06-10T12:48:07;97417.97;;;32.29;93.13
18795;BME280;29610;49.022;12.114;2023-06-10T12:50:41;97406.56;;;32.92;90.91
18795;BME280;29610;49.022;12.114;2023-06-10T12:53:11;97403.41;;;32.99;80.36
18795;BME280;29610;49.022;12.114;2023-06-10T12:55:40;97406.34;;;32.63;70.95
18795;BME280;29610;49.022;12.114;2023-06-10T12:58:09;97408.91;;;32.34;72.37
18795;BME280;29610;49.022;12.114;2023-06-10T13:00:38;97400.38;;;31.92;83.76